createdAt,value
2023-03-21T00:00:48.481Z,78.87
2023-03-21T00:03:23.172Z,78.08
2023-03-21T00:05:54.134Z,77.45
2023-03-21T00:08:22.911Z,75.72
2023-03-21T00:11:01.360Z,77.25
2023-03-21T00:13:32.775Z,77.44
2023-03-21T00:16:17.983Z,77.76
2023-03-21T00:18:57.529Z,77.95
2023-03-21T00:21:44.290Z,78.52
2023-03-21T00:24:16.709Z,76.79
2023-03-21T00:26:45.173Z,76.68
2023-03-21T00:29:12.752Z,77.07
2023-03-21T00:31:40.760Z,77.49
2023-03-21T00:34:08.359Z,77.90
2023-03-21T00:36:36.497Z,77.98
2023-03-21T00:39:07.774Z,77.49
2023-03-21T00:41:42.433Z,77.11
2023-03-21T00:44:14.033Z,77.20
2023-03-21T00:46:49.386Z,78.06
2023-03-21T00:49:25.081Z,78.76
2023-03-21T00:51:55.259Z,78.71
2023-03-21T00:54:26.224Z,79.54
2023-03-21T00:56:54.180Z,78.81
2023-03-21T00:59:21.807Z,78.11
2023-03-21T01:01:49.874Z,78.19
2023-03-21T01:04:18.418Z,77.72
2023-03-21T01:06:46.236Z,78.24
2023-03-21T01:09:15.757Z,79.30
2023-03-21T01:11:44.031Z,79.88
2023-03-21T01:14:28.558Z,79.73
2023-03-21T01:16:56.437Z,79.50
2023-03-21T01:19:40.719Z,80.11
2023-03-21T01:22:14.825Z,80.13
2023-03-21T01:24:52.400Z,79.87
2023-03-21T01:27:24.007Z,78.63
2023-03-21T01:29:51.734Z,79.99
2023-03-21T01:32:19.656Z,79.71
2023-03-21T01:34:47.295Z,79.82
2023-03-21T01:37:18.268Z,79.22
2023-03-21T01:39:49.276Z,78.70
2023-03-21T01:42:17.307Z,79.71
2023-03-21T01:45:01.218Z,79.74
2023-03-21T01:47:44.372Z,79.69
2023-03-21T01:50:25.799Z,79.17
2023-03-21T01:53:02.924Z,78.73
2023-03-21T01:55:33.619Z,79.80
2023-03-21T01:58:08.989Z,79.43
2023-03-21T02:00:50.853Z,80.53
2023-03-21T02:03:36.157Z,80.97
2023-03-21T02:06:44.778Z,81.01
2023-03-21T02:09:28.415Z,81.16
2023-03-21T02:11:56.542Z,81.04
2023-03-21T02:14:29.718Z,80.77
2023-03-21T02:17:05.771Z,80.82
2023-03-21T02:20:01.560Z,81.92
2023-03-21T02:22:48.826Z,81.86
2023-03-21T02:25:41.616Z,81.89
2023-03-21T02:28:35.737Z,81.61
2023-03-21T02:31:15.992Z,82.63
2023-03-21T02:33:58.877Z,84.14
2023-03-21T02:36:45.472Z,82.89
2023-03-21T02:39:16.095Z,83.43
2023-03-21T02:42:04.268Z,82.67
2023-03-21T02:45:03.310Z,84.10
2023-03-21T02:47:47.895Z,83.24
2023-03-21T02:50:18.803Z,82.42
2023-03-21T02:52:48.418Z,82.65
2023-03-21T02:55:19.959Z,82.83
2023-03-21T02:57:56.562Z,83.16
2023-03-21T03:00:32.921Z,83.68
2023-03-21T03:03:10.043Z,83.61
2023-03-21T03:05:49.330Z,82.73
2023-03-21T03:08:32.425Z,83.63
2023-03-21T03:11:07.423Z,82.83
2023-03-21T03:13:35.181Z,82.77
2023-03-21T03:16:11.599Z,82.64
2023-03-21T03:18:53.976Z,83.01
2023-03-21T03:21:27.660Z,82.69
2023-03-21T03:24:01.116Z,83.04
2023-03-21T03:26:28.618Z,83.13
2023-03-21T03:29:02.072Z,83.20
2023-03-21T03:31:33.250Z,82.04
2023-03-21T03:34:07.276Z,81.06
2023-03-21T03:36:41.596Z,84.23
2023-03-21T03:39:14.737Z,87.05
2023-03-21T03:42:18.432Z,87.91
2023-03-21T03:44:59.082Z,88.08
2023-03-21T03:47:56.082Z,88.33
2023-03-21T03:50:31.085Z,89.13
2023-03-21T03:53:17.747Z,88.31
2023-03-21T03:55:47.986Z,88.77
2023-03-21T03:58:23.998Z,88.50
2023-03-21T04:00:56.095Z,87.36
2023-03-21T04:03:24.104Z,88.02
2023-03-21T04:05:54.243Z,88.03
2023-03-21T04:08:23.443Z,88.98
2023-03-21T04:10:55.219Z,88.27
2023-03-21T04:13:23.623Z,88.15
2023-03-21T04:16:13.348Z,87.04
2023-03-21T04:18:43.034Z,86.32
2023-03-21T04:21:13.054Z,86.44
2023-03-21T04:23:41.684Z,86.65
2023-03-21T04:26:10.172Z,85.82
2023-03-21T04:28:43.723Z,85.56
2023-03-21T04:31:27.495Z,84.59
2023-03-21T04:34:10.045Z,83.52
2023-03-21T04:36:45.502Z,83.80
2023-03-21T04:39:13.873Z,84.49
2023-03-21T04:41:45.022Z,85.16
2023-03-21T04:44:13.962Z,84.65
2023-03-21T04:46:42.230Z,84.95
2023-03-21T04:49:11.380Z,84.88
2023-03-21T04:51:39.476Z,84.22
2023-03-21T04:56:38.520Z,83.18
2023-03-21T04:59:07.781Z,83.12
2023-03-21T05:01:35.689Z,83.43
2023-03-21T05:04:05.593Z,83.46
2023-03-21T05:06:36.598Z,83.25
2023-03-21T05:09:07.963Z,83.65
2023-03-21T05:11:38.924Z,83.40
2023-03-21T05:14:07.898Z,83.62
2023-03-21T05:16:36.610Z,83.14
2023-03-21T05:19:04.537Z,84.03
2023-03-21T05:21:42.136Z,84.03
2023-03-21T05:24:28.773Z,82.51
2023-03-21T05:27:02.495Z,83.61
2023-03-21T05:29:33.451Z,82.14
2023-03-21T05:32:04.614Z,82.51
2023-03-21T05:34:32.372Z,80.89
2023-03-21T05:37:01.649Z,81.48
2023-03-21T05:39:49.628Z,82.19
2023-03-21T05:42:24.972Z,81.28
2023-03-21T05:44:52.604Z,81.18
2023-03-21T05:47:26.026Z,80.47
2023-03-21T05:49:55.394Z,80.51
2023-03-21T05:52:24.510Z,81.08
2023-03-21T05:54:52.545Z,81.04
2023-03-21T05:57:24.326Z,80.61
2023-03-21T06:00:01.537Z,79.62
2023-03-21T06:02:31.640Z,80.05
2023-03-21T06:05:03.706Z,79.75
2023-03-21T06:07:31.601Z,79.51
2023-03-21T06:10:00.309Z,80.01
2023-03-21T06:12:28.450Z,81.31
2023-03-21T06:15:02.089Z,81.57
2023-03-21T06:17:33.319Z,80.99
2023-03-21T06:20:08.925Z,80.72
2023-03-21T06:22:47.543Z,80.09
2023-03-21T06:25:15.090Z,80.65
2023-03-21T06:27:42.973Z,79.55
2023-03-21T06:30:12.103Z,82.24
2023-03-21T06:32:48.269Z,80.99
2023-03-21T06:35:18.476Z,78.53
2023-03-21T06:37:49.415Z,78.89
2023-03-21T06:40:18.089Z,79.40
2023-03-21T06:42:46.462Z,78.43
2023-03-21T06:45:14.976Z,77.09
2023-03-21T06:47:44.298Z,77.03
2023-03-21T06:50:24.165Z,76.30
2023-03-21T06:52:51.747Z,75.14
2023-03-21T06:55:26.277Z,72.50
2023-03-21T06:57:55.326Z,71.07
2023-03-21T07:00:24.096Z,71.56
2023-03-21T07:02:52.312Z,70.85
2023-03-21T07:05:21.526Z,70.35
2023-03-21T07:07:49.186Z,69.74
2023-03-21T07:10:17.436Z,69.38
2023-03-21T07:12:50.839Z,69.94
2023-03-21T07:15:25.218Z,71.71
2023-03-21T07:17:53.077Z,69.84
2023-03-21T07:20:21.772Z,68.35
2023-03-21T07:22:49.751Z,68.13
2023-03-21T07:25:17.777Z,68.43
2023-03-21T07:27:46.742Z,67.58
2023-03-21T07:30:14.807Z,65.76
2023-03-21T07:32:42.704Z,65.75
2023-03-21T07:35:12.270Z,65.07
2023-03-21T07:37:40.638Z,65.56
2023-03-21T07:40:10.848Z,64.26
2023-03-21T07:42:40.230Z,64.29
2023-03-21T07:45:09.568Z,62.66
2023-03-21T07:47:37.108Z,61.45
2023-03-21T07:50:05.313Z,61.49
2023-03-21T07:52:33.296Z,62.34
2023-03-21T07:55:01.135Z,62.08
2023-03-21T07:57:28.697Z,62.97
2023-03-21T07:59:56.623Z,62.36
2023-03-21T08:02:24.578Z,64.01
2023-03-21T08:04:52.795Z,64.32
2023-03-21T08:07:20.390Z,64.50
2023-03-21T08:09:48.205Z,66.40
2023-03-21T08:12:17.015Z,66.40
2023-03-21T08:14:44.970Z,63.82
2023-03-21T08:17:12.717Z,64.31
2023-03-21T08:19:40.618Z,64.70
2023-03-21T08:22:08.138Z,64.27
2023-03-21T08:24:36.293Z,63.42
2023-03-21T08:27:03.969Z,67.34
2023-03-21T08:29:31.529Z,68.68
2023-03-21T08:31:59.398Z,68.67
2023-03-21T08:34:26.940Z,69.19
2023-03-21T08:36:54.755Z,69.81
2023-03-21T08:39:24.276Z,67.93
2023-03-21T08:41:52.577Z,64.14
2023-03-21T08:44:20.321Z,64.75
2023-03-21T08:46:48.399Z,65.27
2023-03-21T08:49:16.428Z,64.86
2023-03-21T08:51:45.866Z,63.29
2023-03-21T08:54:18.645Z,64.93
2023-03-21T08:56:46.622Z,64.10
2023-03-21T08:59:14.222Z,61.44
2023-03-21T09:01:42.328Z,59.00
2023-03-21T09:04:11.307Z,58.91
2023-03-21T09:06:46.063Z,59.50
2023-03-21T09:09:13.928Z,57.12
2023-03-21T09:11:42.060Z,58.47
2023-03-21T09:14:09.730Z,55.86
2023-03-21T09:16:37.653Z,55.20
2023-03-21T09:19:08.774Z,56.44
2023-03-21T09:21:36.931Z,56.00
2023-03-21T09:24:05.805Z,54.30
2023-03-21T09:26:33.733Z,54.31
2023-03-21T09:29:01.263Z,53.86
2023-03-21T09:31:29.398Z,54.88
2023-03-21T09:33:57.383Z,55.49
2023-03-21T09:36:27.453Z,55.40
2023-03-21T09:38:57.275Z,54.45
2023-03-21T09:41:32.298Z,53.98
2023-03-21T09:44:18.547Z,51.39
2023-03-21T09:46:58.543Z,49.59
2023-03-21T09:49:31.518Z,50.52
2023-03-21T09:52:03.794Z,50.31
2023-03-21T09:54:44.038Z,50.26
2023-03-21T09:57:19.877Z,49.15
2023-03-21T09:59:48.577Z,49.06
2023-03-21T10:02:32.530Z,47.55
2023-03-21T10:05:01.008Z,45.79
2023-03-21T10:07:32.070Z,44.82
2023-03-21T10:10:03.804Z,45.56
2023-03-21T10:12:31.970Z,47.12
2023-03-21T10:15:01.216Z,45.79
2023-03-21T10:17:33.868Z,45.24
2023-03-21T10:20:21.543Z,43.41
2023-03-21T10:22:54.442Z,43.98
2023-03-21T10:25:28.399Z,44.96
2023-03-21T10:27:56.353Z,45.05
2023-03-21T10:30:29.969Z,44.82
2023-03-21T10:32:59.784Z,42.40
2023-03-21T10:35:27.493Z,42.27
2023-03-21T10:37:55.411Z,42.86
2023-03-21T10:40:23.027Z,44.02
2023-03-21T10:42:50.942Z,41.16
2023-03-21T10:45:20.213Z,40.09
2023-03-21T10:47:49.655Z,40.96
2023-03-21T10:50:25.339Z,42.89
2023-03-21T10:53:00.888Z,41.64
2023-03-21T10:55:31.356Z,40.58
2023-03-21T10:58:11.154Z,41.83
2023-03-21T11:00:41.652Z,41.56
2023-03-21T11:03:23.742Z,41.71
2023-03-21T11:05:57.791Z,41.00
2023-03-21T11:08:27.567Z,39.91
2023-03-21T11:11:03.734Z,37.04
2023-03-21T11:13:39.355Z,36.43
2023-03-21T11:16:09.066Z,35.38
2023-03-21T11:18:42.774Z,35.47
2023-03-21T11:21:12.156Z,36.29
2023-03-21T11:23:45.686Z,36.13
2023-03-21T11:26:20.069Z,35.27
2023-03-21T11:28:48.011Z,33.95
2023-03-21T11:31:17.541Z,34.79
2023-03-21T11:33:52.223Z,33.54
2023-03-21T11:36:19.904Z,32.17
2023-03-21T11:38:53.284Z,32.01
2023-03-21T11:41:25.882Z,33.30
2023-03-21T11:43:54.022Z,31.55
2023-03-21T11:46:26.441Z,32.58
2023-03-21T11:48:55.675Z,31.00
2023-03-21T11:51:38.710Z,31.85
2023-03-21T11:54:06.864Z,32.34
2023-03-21T11:56:34.400Z,32.02
2023-03-21T11:59:20.783Z,31.68
2023-03-21T12:02:06.713Z,32.87
2023-03-21T12:04:40.658Z,31.83
2023-03-21T12:07:11.105Z,32.01
2023-03-21T12:09:55.452Z,31.00
2023-03-21T12:12:38.045Z,32.16
2023-03-21T12:15:09.783Z,32.65
2023-03-21T12:17:43.184Z,31.45
2023-03-21T12:20:23.666Z,30.77
2023-03-21T12:22:54.158Z,29.00
2023-03-21T12:25:25.782Z,30.06
2023-03-21T12:27:56.453Z,34.37
2023-03-21T12:30:43.240Z,35.17
2023-03-21T12:33:10.853Z,36.83
2023-03-21T12:35:47.640Z,34.81
2023-03-21T12:38:18.182Z,34.86
2023-03-21T12:40:55.888Z,34.59
2023-03-21T12:43:36.868Z,33.56
2023-03-21T12:46:10.468Z,33.86
2023-03-21T12:48:52.695Z,34.11
2023-03-21T12:51:23.000Z,34.95
2023-03-21T12:53:59.488Z,34.71
2023-03-21T12:56:41.879Z,36.60
2023-03-21T12:59:12.196Z,34.18
2023-03-21T13:01:42.152Z,34.27
2023-03-21T13:04:09.877Z,34.02
2023-03-21T13:06:39.181Z,33.94
2023-03-21T13:09:37.344Z,34.36
2023-03-21T13:12:15.154Z,34.84
2023-03-21T13:15:07.842Z,34.20
2023-03-21T13:17:42.747Z,34.42
2023-03-21T13:20:22.806Z,33.43
2023-03-21T13:22:50.764Z,32.22
2023-03-21T13:25:20.677Z,33.20
2023-03-21T13:27:55.927Z,33.00
2023-03-21T13:30:28.296Z,33.87
2023-03-21T13:33:12.986Z,34.09
2023-03-21T13:35:43.121Z,34.36
2023-03-21T13:38:25.870Z,34.98
2023-03-21T13:40:59.414Z,34.99
2023-03-21T13:43:39.611Z,35.28
2023-03-21T13:46:09.101Z,34.63
2023-03-21T13:49:00.455Z,32.85
2023-03-21T13:51:28.101Z,33.66
2023-03-21T13:54:04.896Z,33.15
2023-03-21T13:56:47.422Z,34.37
2023-03-21T13:59:33.675Z,33.30
2023-03-21T14:02:01.360Z,34.34
2023-03-21T14:04:42.045Z,33.93
2023-03-21T14:07:30.208Z,34.55
2023-03-21T14:10:06.457Z,35.25
2023-03-21T14:12:44.232Z,33.39
2023-03-21T14:15:32.526Z,34.34
2023-03-21T14:18:15.860Z,33.56
2023-03-21T14:20:58.578Z,32.86
2023-03-21T14:23:26.166Z,34.33
2023-03-21T14:25:54.206Z,35.47
2023-03-21T14:28:25.126Z,33.52
2023-03-21T14:30:58.976Z,34.16
2023-03-21T14:33:32.425Z,34.51
2023-03-21T14:36:02.282Z,32.66
2023-03-21T14:38:33.836Z,32.43
2023-03-21T14:41:01.882Z,33.23
2023-03-21T14:43:31.144Z,33.44
2023-03-21T14:45:59.233Z,33.72
2023-03-21T14:48:33.951Z,34.16
2023-03-21T14:51:04.176Z,34.65
2023-03-21T14:53:33.551Z,33.28
2023-03-21T14:56:17.863Z,33.82
2023-03-21T14:58:46.438Z,32.73
2023-03-21T15:01:35.222Z,33.81
2023-03-21T15:04:05.688Z,32.43
2023-03-21T15:06:35.852Z,33.00
2023-03-21T15:09:04.951Z,33.00
2023-03-21T15:11:34.490Z,33.58
2023-03-21T15:14:04.341Z,34.39
2023-03-21T15:16:32.618Z,32.92
2023-03-21T15:19:02.257Z,34.52
2023-03-21T15:21:32.500Z,34.92
2023-03-21T15:24:23.156Z,34.15
2023-03-21T15:26:51.886Z,33.22
2023-03-21T15:29:19.478Z,33.98
2023-03-21T15:31:48.250Z,34.77
2023-03-21T15:34:21.900Z,34.44
2023-03-21T15:36:55.788Z,35.24
2023-03-21T15:39:24.036Z,36.06
2023-03-21T15:42:17.892Z,36.41
2023-03-21T15:44:49.876Z,37.03
2023-03-21T15:47:35.664Z,36.72
2023-03-21T15:50:08.053Z,36.47
2023-03-21T15:52:36.838Z,36.68
2023-03-21T15:55:17.467Z,36.06
2023-03-21T15:57:47.691Z,37.70
2023-03-21T16:00:20.086Z,37.21
2023-03-21T16:02:48.724Z,37.83
2023-03-21T16:05:24.243Z,37.38
2023-03-21T16:07:52.240Z,38.01
2023-03-21T16:10:27.061Z,37.84
2023-03-21T16:12:55.013Z,37.04
2023-03-21T16:15:24.036Z,37.54
2023-03-21T16:17:54.693Z,37.48
2023-03-21T16:20:24.751Z,37.16
2023-03-21T16:22:52.647Z,36.73
2023-03-21T16:25:20.815Z,37.36
2023-03-21T16:27:48.884Z,37.42
2023-03-21T16:30:17.890Z,37.25
2023-03-21T16:32:46.001Z,37.15
2023-03-21T16:35:13.650Z,36.91
2023-03-21T16:37:41.915Z,37.10
2023-03-21T16:40:24.197Z,36.47
2023-03-21T16:42:52.402Z,37.84
2023-03-21T16:45:20.024Z,37.11
2023-03-21T16:47:48.224Z,37.69
2023-03-21T16:50:21.951Z,38.22
2023-03-21T16:52:50.053Z,38.95
2023-03-21T16:55:17.594Z,39.11
2023-03-21T16:57:46.463Z,39.52
2023-03-21T17:00:17.604Z,40.07
2023-03-21T17:02:45.623Z,40.14
2023-03-21T17:05:13.902Z,39.80
2023-03-21T17:07:44.255Z,40.44
2023-03-21T17:10:22.811Z,40.09
2023-03-21T17:12:50.983Z,39.82
2023-03-21T17:15:19.326Z,39.68
2023-03-21T17:17:50.298Z,39.62
2023-03-21T17:20:18.174Z,40.33
2023-03-21T17:22:46.144Z,39.53
2023-03-21T17:25:14.183Z,39.76
2023-03-21T17:27:42.122Z,40.76
2023-03-21T17:30:19.722Z,40.29
2023-03-21T17:32:48.082Z,40.42
2023-03-21T17:35:16.165Z,40.13
2023-03-21T17:37:50.262Z,40.79
2023-03-21T17:40:22.413Z,41.09
2023-03-21T17:42:51.079Z,41.43
2023-03-21T17:45:19.712Z,41.08
2023-03-21T17:47:48.606Z,41.23
2023-03-21T17:50:21.502Z,41.81
2023-03-21T17:52:50.877Z,41.98
2023-03-21T17:55:19.821Z,42.58
2023-03-21T17:57:48.691Z,42.34
2023-03-21T18:00:24.001Z,42.60
2023-03-21T18:02:52.381Z,43.12
2023-03-21T18:05:21.844Z,43.26
2023-03-21T18:10:37.813Z,43.24
2023-03-21T18:13:06.351Z,43.29
2023-03-21T18:15:34.826Z,43.69
2023-03-21T18:18:06.012Z,43.65
2023-03-21T18:23:22.148Z,44.94
2023-03-21T18:25:49.760Z,44.24
2023-03-21T18:28:21.054Z,44.99
2023-03-21T18:31:07.718Z,45.02
2023-03-21T18:33:40.517Z,44.52
2023-03-21T18:36:09.451Z,44.97
2023-03-21T18:38:37.732Z,45.09
2023-03-21T18:41:06.383Z,45.43
2023-03-21T18:44:01.304Z,46.43
2023-03-21T18:46:23.068Z,45.93
2023-03-21T18:48:51.933Z,46.66
2023-03-21T18:51:19.819Z,46.76
2023-03-21T18:53:47.965Z,46.63
2023-03-21T18:56:57.671Z,46.15
2023-03-21T18:59:07.615Z,46.48
2023-03-21T19:01:36.131Z,46.92
2023-03-21T19:04:20.734Z,47.08
2023-03-21T19:06:50.738Z,46.99
2023-03-21T19:09:19.556Z,47.42
2023-03-21T19:11:47.360Z,47.67
2023-03-21T19:14:17.171Z,47.98
2023-03-21T19:17:26.460Z,47.69
2023-03-21T19:19:34.075Z,47.58
2023-03-21T19:22:01.859Z,47.76
2023-03-21T19:24:29.991Z,47.65
2023-03-21T19:26:57.857Z,48.10
2023-03-21T19:29:26.043Z,48.45
2023-03-21T19:31:53.703Z,47.93
2023-03-21T19:34:21.928Z,48.36
2023-03-21T19:36:51.970Z,48.55
2023-03-21T19:39:22.860Z,48.44
2023-03-21T19:41:51.668Z,48.49
2023-03-21T19:44:22.670Z,48.32
2023-03-21T19:46:51.357Z,47.73
2023-03-21T19:49:22.256Z,47.31
2023-03-21T19:51:50.093Z,47.75
2023-03-21T19:54:18.262Z,48.01
2023-03-21T19:56:47.449Z,48.27
2023-03-21T19:59:16.126Z,48.65
2023-03-21T20:01:44.720Z,48.72
2023-03-21T20:04:12.914Z,48.76
2023-03-21T20:06:40.722Z,49.16
2023-03-21T20:11:57.960Z,48.90
2023-03-21T20:14:26.029Z,48.68
2023-03-21T20:16:55.363Z,48.26
2023-03-21T20:19:23.438Z,49.00
2023-03-21T20:21:57.879Z,49.55
2023-03-21T20:24:27.658Z,49.69
2023-03-21T20:26:55.837Z,49.48
2023-03-21T20:32:11.761Z,50.51
2023-03-21T20:34:40.410Z,50.46
2023-03-21T20:37:11.393Z,50.79
2023-03-21T20:39:39.997Z,50.34
2023-03-21T20:42:07.711Z,50.23
2023-03-21T20:44:55.984Z,50.46
2023-03-21T20:47:23.826Z,50.03
2023-03-21T20:49:51.653Z,50.67
2023-03-21T20:55:09.337Z,51.11
2023-03-21T20:57:38.796Z,51.33
2023-03-21T21:00:17.123Z,51.42
2023-03-21T21:02:46.114Z,51.54
2023-03-21T21:05:26.089Z,51.45
2023-03-21T21:07:56.667Z,50.66
2023-03-21T21:10:25.850Z,51.47
2023-03-21T21:12:53.561Z,51.33
2023-03-21T21:15:21.508Z,52.20
2023-03-21T21:18:06.952Z,52.63
2023-03-21T21:20:36.629Z,52.06
2023-03-21T21:23:05.225Z,52.48
2023-03-21T21:25:34.231Z,52.32
2023-03-21T21:28:02.099Z,52.14
2023-03-21T21:30:31.761Z,52.18
2023-03-21T21:33:01.097Z,52.65
2023-03-21T21:35:29.189Z,52.85
2023-03-21T21:37:57.722Z,52.85
2023-03-21T21:40:26.117Z,52.72
2023-03-21T21:42:53.823Z,52.54
2023-03-21T21:45:21.818Z,52.07
2023-03-21T21:47:49.424Z,52.13
2023-03-21T21:50:17.371Z,51.81
2023-03-21T21:52:52.756Z,51.98
2023-03-21T21:55:21.079Z,52.09
2023-03-21T21:57:51.293Z,52.31
2023-03-21T22:00:19.641Z,52.47
2023-03-21T22:02:47.473Z,52.57
2023-03-21T22:05:16.711Z,52.14
2023-03-21T22:07:44.434Z,52.54
2023-03-21T22:10:12.410Z,52.75
2023-03-21T22:12:39.994Z,52.91
2023-03-21T22:15:08.450Z,53.09
2023-03-21T22:17:36.534Z,52.87
2023-03-21T22:20:09.588Z,52.67
2023-03-21T22:22:37.446Z,52.32
2023-03-21T22:25:06.343Z,52.99
2023-03-21T22:27:34.064Z,52.67
2023-03-21T22:30:04.853Z,52.50
2023-03-21T22:32:32.717Z,52.81
2023-03-21T22:35:04.686Z,52.73
2023-03-21T22:37:33.213Z,52.70
2023-03-21T22:40:01.483Z,53.47
2023-03-21T22:42:29.166Z,53.36
2023-03-21T22:44:57.038Z,53.54
2023-03-21T22:47:24.639Z,53.98
2023-03-21T22:49:52.586Z,54.04
2023-03-21T22:52:20.535Z,54.37
2023-03-21T22:54:49.527Z,53.87
2023-03-21T22:57:18.028Z,53.94
2023-03-21T22:59:45.929Z,53.99
2023-03-21T23:02:14.068Z,54.43
2023-03-21T23:04:42.168Z,54.38
2023-03-21T23:07:10.047Z,54.74
2023-03-21T23:09:38.049Z,54.50
2023-03-21T23:12:05.668Z,54.21
2023-03-21T23:14:33.513Z,54.28
2023-03-21T23:17:03.045Z,54.30
2023-03-21T23:19:32.441Z,54.82
2023-03-21T23:21:59.996Z,54.42
2023-03-21T23:24:32.792Z,55.55
2023-03-21T23:27:00.789Z,55.82
2023-03-21T23:29:28.749Z,55.97
2023-03-21T23:31:56.587Z,55.73
2023-03-21T23:34:24.490Z,56.07
2023-03-21T23:36:52.112Z,55.79
2023-03-21T23:39:20.400Z,55.87
2023-03-21T23:41:48.003Z,55.66
2023-03-21T23:44:16.462Z,56.48
2023-03-21T23:46:44.150Z,55.88
2023-03-21T23:49:12.129Z,56.26
2023-03-21T23:51:39.664Z,57.03
2023-03-21T23:54:07.850Z,57.49
2023-03-21T23:56:36.668Z,57.37
2023-03-21T23:59:05.037Z,57.11
